Time;durP1;ratioP1;P1;durP2;ratioP2;P2;SDS_P1;SDS_P2;PMS_P1;PMS_P2;Temp;Humidity;BMP_temperature;BMP_pressure;BME280_temperature;BME280_humidity;BME280_pressure;Samples;Min_cycle;Max_cycle;Signal;HPM_P1;HPM_P2
2022/09/18 00:01:44;;;;;;;0.88;0.75;;;;;;;;;;7385689;19;20002;-68
2022/09/18 00:04:15;;;;;;;0.70;0.70;;;;;;;;;;7387388;19;20003;-67
2022/09/18 00:06:42;;;;;;;0.45;0.45;;;;;;;;;;7388309;19;20003;-67
2022/09/18 00:09:10;;;;;;;0.98;0.98;;;;;;;;;;7386372;19;20457;-69
2022/09/18 00:11:38;;;;;;;2.38;0.73;;;;;;;;;;7387521;19;20492;-68
2022/09/18 00:14:05;;;;;;;1.15;0.73;;;;;;;;;;7387383;19;20006;-68
2022/09/18 00:16:31;;;;;;;1.00;0.98;;;;;;;;;;7388238;19;20094;-68
2022/09/18 00:18:57;;;;;;;0.98;0.82;;;;;;;;;;7385412;19;20494;-68
2022/09/18 00:21:24;;;;;;;1.02;0.93;;;;;;;;;;7387523;19;20019;-68
2022/09/18 00:23:51;;;;;;;1.63;0.95;;;;;;;;;;7387408;19;20006;-69
2022/09/18 00:26:17;;;;;;;0.77;0.65;;;;;;;;;;7387847;19;20079;-69
2022/09/18 00:28:44;;;;;;;3.60;1.38;;;;;;;;;;7387965;19;20178;-68
2022/09/18 00:31:12;;;;;;;2.72;0.60;;;;;;;;;;7387417;19;20006;-68
2022/09/18 00:33:38;;;;;;;0.65;0.50;;;;;;;;;;7386875;19;20375;-68
2022/09/18 00:36:06;;;;;;;2.38;0.80;;;;;;;;;;7387626;19;20010;-69
2022/09/18 00:38:31;;;;;;;0.75;0.75;;;;;;;;;;7388263;19;20034;-68
2022/09/18 00:40:58;;;;;;;2.15;1.05;;;;;;;;;;7391147;19;20006;-69
2022/09/18 00:43:26;;;;;;;0.47;0.47;;;;;;;;;;7400260;19;20007;-69
2022/09/18 00:45:56;;;;;;;1.67;1.00;;;;;;;;;;7401742;19;20019;-67
2022/09/18 00:48:25;;;;;;;0.68;0.68;;;;;;;;;;7400554;19;19998;-67
2022/09/18 00:50:51;;;;;;;0.77;0.68;;;;;;;;;;7402010;19;20002;-68
2022/09/18 00:53:16;;;;;;;1.15;0.90;;;;;;;;;;7401324;19;20005;-68
2022/09/18 00:55:42;;;;;;;1.10;0.70;;;;;;;;;;7401777;19;19995;-68
2022/09/18 00:58:08;;;;;;;1.35;0.73;;;;;;;;;;7401337;19;20002;-68
2022/09/18 01:00:34;;;;;;;1.48;0.65;;;;;;;;;;7401354;19;20002;-68
2022/09/18 01:03:00;;;;;;;1.73;0.60;;;;;;;;;;7400548;19;20022;-68
2022/09/18 01:05:56;;;;;;;1.33;1.10;;;;;;;;;;7397721;19;20412;-68
2022/09/18 01:08:36;;;;;;;0.68;0.60;;;;;;;;;;7401090;19;19999;-68
2022/09/18 01:11:20;;;;;;;2.73;1.07;;;;;;;;;;7401285;19;20263;-68
2022/09/18 01:14:12;;;;;;;0.82;0.82;;;;;;;;;;7400116;19;20271;-68
2022/09/18 01:17:03;;;;;;;0.82;0.55;;;;;;;;;;7400943;19;20019;-67
2022/09/18 01:19:47;;;;;;;1.80;0.85;;;;;;;;;;7399259;19;20006;-67
2022/09/18 01:22:15;;;;;;;2.17;0.73;;;;;;;;;;7400729;19;20018;-67
2022/09/18 01:24:55;;;;;;;0.80;0.80;;;;;;;;;;7398827;19;20014;-67
2022/09/18 01:27:53;;;;;;;0.43;0.43;;;;;;;;;;7400443;19;20527;-67
2022/09/18 01:30:18;;;;;;;4.25;1.00;;;;;;;;;;7399982;19;20010;-67
2022/09/18 01:32:50;;;;;;;1.55;0.77;;;;;;;;;;7403575;19;19998;-67
2022/09/18 01:35:24;;;;;;;1.13;1.10;;;;;;;;;;7403324;19;20002;-68
2022/09/18 01:37:53;;;;;;;0.77;0.77;;;;;;;;;;7398744;19;19999;-68
2022/09/18 01:40:30;;;;;;;0.68;0.65;;;;;;;;;;7398286;19;20037;-68
2022/09/18 01:43:00;;;;;;;1.20;1.00;;;;;;;;;;7399330;19;20018;-68
2022/09/18 01:45:30;;;;;;;0.45;0.45;;;;;;;;;;7397766;19;20038;-68
2022/09/18 01:48:05;;;;;;;4.45;0.85;;;;;;;;;;7402248;19;20021;-68
2022/09/18 01:50:36;;;;;;;0.73;0.60;;;;;;;;;;7399803;19;20009;-68
2022/09/18 01:53:07;;;;;;;;;;;;;;;;;;7395484;19;20002;-68
2022/09/18 01:55:33;;;;;;;0.70;0.68;;;;;;;;;;7391422;19;21865;-68
2022/09/18 01:58:12;;;;;;;1.55;0.80;;;;;;;;;;7393938;19;20011;-68
2022/09/18 02:00:42;;;;;;;0.93;0.77;;;;;;;;;;7390743;19;20341;-68
2022/09/18 02:03:17;;;;;;;0.70;0.70;;;;;;;;;;7391676;19;20082;-68
2022/09/18 02:05:51;;;;;;;0.60;0.60;;;;;;;;;;7392310;19;20347;-68
2022/09/18 02:08:46;;;;;;;0.65;0.65;;;;;;;;;;7390590;19;20002;-68
2022/09/18 02:11:14;;;;;;;1.17;0.40;;;;;;;;;;7391585;19;20013;-68
2022/09/18 02:13:45;;;;;;;0.70;0.70;;;;;;;;;;7391352;19;20372;-68
2022/09/18 02:16:26;;;;;;;0.50;0.50;;;;;;;;;;7391953;19;20003;-68
2022/09/18 02:18:56;;;;;;;0.50;0.50;;;;;;;;;;7389671;19;20007;-67
2022/09/18 02:21:27;;;;;;;2.55;0.82;;;;;;;;;;7391140;19;20480;-68
2022/09/18 02:24:14;;;;;;;0.70;0.70;;;;;;;;;;7388756;19;20074;-68
2022/09/18 02:26:41;;;;;;;7.28;0.50;;;;;;;;;;7391580;19;20025;-68
2022/09/18 02:29:10;;;;;;;2.97;1.05;;;;;;;;;;7391725;19;20013;-68
2022/09/18 02:31:37;;;;;;;2.08;0.80;;;;;;;;;;7391164;19;20006;-68
2022/09/18 02:34:03;;;;;;;1.55;0.50;;;;;;;;;;7390578;19;20433;-68
2022/09/18 02:36:37;;;;;;;0.32;0.32;;;;;;;;;;7391352;19;20023;-68
2022/09/18 02:39:37;;;;;;;0.30;0.30;;;;;;;;;;7390749;19;20357;-68
2022/09/18 02:42:40;;;;;;;2.35;1.05;;;;;;;;;;7389233;19;20010;-68
2022/09/18 02:45:40;;;;;;;1.20;0.57;;;;;;;;;;7389663;19;20009;-68
2022/09/18 02:48:24;;;;;;;0.27;0.27;;;;;;;;;;7391468;19;20019;-68
2022/09/18 02:51:17;;;;;;;1.25;0.47;;;;;;;;;;7391330;19;20518;-68
2022/09/18 02:53:54;;;;;;;0.30;0.28;;;;;;;;;;7390572;19;20006;-68
2022/09/18 02:56:45;;;;;;;0.20;0.20;;;;;;;;;;7391691;19;20007;-68
2022/09/18 02:59:13;;;;;;;0.60;0.60;;;;;;;;;;7389598;19;20279;-68
2022/09/18 03:01:41;;;;;;;0.20;0.20;;;;;;;;;;7390583;19;20006;-68
2022/09/18 03:04:11;;;;;;;0.20;0.20;;;;;;;;;;7388398;19;20029;-68
2022/09/18 03:06:37;;;;;;;0.38;0.38;;;;;;;;;;7389453;19;20006;-68
2022/09/18 03:09:02;;;;;;;0.30;0.30;;;;;;;;;;7390573;19;20033;-68
2022/09/18 03:11:28;;;;;;;1.08;0.45;;;;;;;;;;7389778;19;19999;-68
2022/09/18 03:13:53;;;;;;;0.68;0.68;;;;;;;;;;7387763;19;20390;-68
2022/09/18 03:16:19;;;;;;;0.40;0.40;;;;;;;;;;7390089;19;19995;-68
2022/09/18 03:18:44;;;;;;;2.83;0.80;;;;;;;;;;7387967;19;20472;-68
2022/09/18 03:21:09;;;;;;;0.40;0.40;;;;;;;;;;7389411;19;20003;-68
2022/09/18 03:23:35;;;;;;;0.60;0.60;;;;;;;;;;7389421;19;19999;-68
2022/09/18 03:26:00;;;;;;;0.50;0.50;;;;;;;;;;7387977;19;20345;-68
2022/09/18 03:28:25;;;;;;;0.82;0.82;;;;;;;;;;7394273;19;20066;-68
2022/09/18 03:30:51;;;;;;;0.47;0.47;;;;;;;;;;7387464;19;20027;-68
2022/09/18 03:33:16;;;;;;;0.68;0.40;;;;;;;;;;7388918;19;20007;-68
2022/09/18 03:35:42;;;;;;;0.38;0.30;;;;;;;;;;7390433;19;20456;-68
2022/09/18 03:38:08;;;;;;;0.55;0.52;;;;;;;;;;7389579;19;20390;-68
2022/09/18 03:40:34;;;;;;;1.00;0.50;;;;;;;;;;7387881;19;20023;-68
2022/09/18 03:42:59;;;;;;;1.20;0.45;;;;;;;;;;7388672;19;20035;-67
2022/09/18 03:45:25;;;;;;;0.52;0.35;;;;;;;;;;7387035;19;20381;-68
2022/09/18 03:47:50;;;;;;;0.20;0.20;;;;;;;;;;7388812;19;20025;-68
2022/09/18 03:50:16;;;;;;;1.10;0.65;;;;;;;;;;7388686;19;20524;-68
2022/09/18 03:52:41;;;;;;;0.77;0.60;;;;;;;;;;7388397;19;20009;-68
2022/09/18 03:55:08;;;;;;;0.52;0.40;;;;;;;;;;7387408;19;20006;-68
2022/09/18 03:57:33;;;;;;;0.40;0.40;;;;;;;;;;7389767;19;20003;-68
2022/09/18 03:59:58;;;;;;;7.20;1.20;;;;;;;;;;7387104;19;20005;-68
2022/09/18 04:02:24;;;;;;;1.95;0.32;;;;;;;;;;7385883;19;20002;-68
2022/09/18 04:04:49;;;;;;;0.20;0.20;;;;;;;;;;7386977;19;20003;-68
2022/09/18 04:07:14;;;;;;;2.50;0.60;;;;;;;;;;7388668;19;19999;-68
2022/09/18 04:09:40;;;;;;;0.90;0.47;;;;;;;;;;7386547;19;20520;-68
2022/09/18 04:12:05;;;;;;;5.22;0.85;;;;;;;;;;7387955;19;20011;-68
2022/09/18 04:14:30;;;;;;;0.35;0.35;;;;;;;;;;7385707;19;20014;-68
2022/09/18 04:16:56;;;;;;;0.20;0.20;;;;;;;;;;7388009;19;20002;-68
2022/09/18 04:19:21;;;;;;;0.55;0.40;;;;;;;;;;7386890;19;20571;-68
2022/09/18 04:21:46;;;;;;;0.22;0.22;;;;;;;;;;7385370;19;20002;-68
2022/09/18 04:24:12;;;;;;;1.63;0.35;;;;;;;;;;7387894;19;20002;-68
2022/09/18 04:26:37;;;;;;;0.20;0.15;;;;;;;;;;7388213;19;20162;-68
2022/09/18 04:29:03;;;;;;;1.33;0.40;;;;;;;;;;7387792;19;20430;-68
2022/09/18 04:31:28;;;;;;;0.60;0.45;;;;;;;;;;7387037;19;20010;-68
2022/09/18 04:33:54;;;;;;;0.50;0.45;;;;;;;;;;7385237;19;20556;-68
2022/09/18 04:36:19;;;;;;;4.03;0.75;;;;;;;;;;7387868;19;20488;-68
2022/09/18 04:38:44;;;;;;;0.10;0.10;;;;;;;;;;7386978;19;19991;-68
2022/09/18 04:41:10;;;;;;;0.40;0.40;;;;;;;;;;7387150;19;19995;-68
2022/09/18 04:43:35;;;;;;;0.32;0.32;;;;;;;;;;7387153;19;20020;-67
2022/09/18 04:46:01;;;;;;;0.20;0.20;;;;;;;;;;7387666;19;19998;-67
2022/09/18 04:48:26;;;;;;;0.30;0.30;;;;;;;;;;7387394;19;20082;-67
2022/09/18 04:50:51;;;;;;;1.85;0.52;;;;;;;;;;7385811;19;19999;-68
2022/09/18 04:53:17;;;;;;;0.30;0.30;;;;;;;;;;7386741;19;20469;-67
2022/09/18 04:55:46;;;;;;;0.25;0.25;;;;;;;;;;7387262;19;20054;-68
2022/09/18 04:58:13;;;;;;;0.45;0.43;;;;;;;;;;7387281;19;20015;-67
2022/09/18 05:00:38;;;;;;;0.65;0.40;;;;;;;;;;7385521;19;20011;-67
2022/09/18 05:03:04;;;;;;;0.43;0.43;;;;;;;;;;7386593;19;20468;-69
2022/09/18 05:05:30;;;;;;;0.15;0.15;;;;;;;;;;7387383;19;19999;-68
2022/09/18 05:07:59;;;;;;;0.30;0.30;;;;;;;;;;7387836;19;19991;-68
2022/09/18 05:10:24;;;;;;;0.55;0.38;;;;;;;;;;7387426;19;19994;-68
2022/09/18 05:12:50;;;;;;;0.32;0.32;;;;;;;;;;7386595;19;20069;-67
2022/09/18 05:15:17;;;;;;;1.75;0.50;;;;;;;;;;7386378;19;19998;-67
2022/09/18 05:17:42;;;;;;;0.30;0.30;;;;;;;;;;7386817;19;20009;-69
2022/09/18 05:20:08;;;;;;;1.75;0.60;;;;;;;;;;7385160;19;20058;-67
2022/09/18 05:22:33;;;;;;;0.20;0.20;;;;;;;;;;7386251;19;19995;-68
2022/09/18 05:24:59;;;;;;;0.40;0.20;;;;;;;;;;7385978;19;20004;-68
2022/09/18 05:27:24;;;;;;;1.40;0.55;;;;;;;;;;7386327;19;20340;-68
2022/09/18 05:29:49;;;;;;;0.10;0.10;;;;;;;;;;7391403;19;20028;-68
2022/09/18 05:32:18;;;;;;;0.85;0.63;;;;;;;;;;7393108;19;20021;-68
2022/09/18 05:34:44;;;;;;;0.10;0.10;;;;;;;;;;7391519;19;19998;-68
2022/09/18 05:37:09;;;;;;;0.52;0.32;;;;;;;;;;7392373;19;20024;-68
2022/09/18 05:39:34;;;;;;;0.52;0.47;;;;;;;;;;7392185;19;19998;-68
2022/09/18 05:42:00;;;;;;;0.38;0.38;;;;;;;;;;7395942;19;20368;-68
2022/09/18 05:44:25;;;;;;;0.28;0.20;;;;;;;;;;7391640;19;20005;-68
2022/09/18 05:46:50;;;;;;;0.52;0.40;;;;;;;;;;7393831;19;20046;-68
2022/09/18 05:49:16;;;;;;;0.20;0.20;;;;;;;;;;7398100;19;19998;-68
2022/09/18 05:51:41;;;;;;;0.65;0.47;;;;;;;;;;7396870;19;20039;-68
2022/09/18 05:54:06;;;;;;;0.20;0.20;;;;;;;;;;7396043;19;20002;-68
2022/09/18 05:56:32;;;;;;;0.38;0.38;;;;;;;;;;7392780;19;19999;-68
2022/09/18 05:58:57;;;;;;;0.22;0.22;;;;;;;;;;7391967;19;20062;-68
2022/09/18 06:01:22;;;;;;;0.43;0.40;;;;;;;;;;7392004;19;20044;-68
2022/09/18 06:03:50;;;;;;;0.38;0.38;;;;;;;;;;7391411;19;20376;-68
2022/09/18 06:06:16;;;;;;;0.30;0.30;;;;;;;;;;7390402;19;19999;-68
2022/09/18 06:08:41;;;;;;;0.75;0.50;;;;;;;;;;7391087;19;19994;-68
2022/09/18 06:11:07;;;;;;;0.47;0.30;;;;;;;;;;7391584;19;20082;-68
2022/09/18 06:13:32;;;;;;;0.10;0.10;;;;;;;;;;7391574;19;20062;-68
2022/09/18 06:15:58;;;;;;;0.55;0.30;;;;;;;;;;7391919;19;19995;-68
2022/09/18 06:18:24;;;;;;;2.83;0.45;;;;;;;;;;7391645;19;20002;-68
2022/09/18 06:20:55;;;;;;;0.35;0.13;;;;;;;;;;7392849;19;19991;-68
2022/09/18 06:23:25;;;;;;;0.55;0.40;;;;;;;;;;7389140;19;20343;-68
2022/09/18 06:25:58;;;;;;;1.40;0.57;;;;;;;;;;7391604;19;20039;-68
2022/09/18 06:28:23;;;;;;;1.73;0.35;;;;;;;;;;7391682;19;20002;-68
2022/09/18 06:30:49;;;;;;;0.17;0.17;;;;;;;;;;7391307;19;19999;-68
2022/09/18 06:33:14;;;;;;;3.22;0.68;;;;;;;;;;7391095;19;19990;-68
2022/09/18 06:35:41;;;;;;;0.45;0.40;;;;;;;;;;7391315;19;20057;-68
2022/09/18 06:38:06;;;;;;;0.20;0.20;;;;;;;;;;7391204;19;20009;-68
2022/09/18 06:40:33;;;;;;;0.10;0.10;;;;;;;;;;7387096;19;20003;-69
2022/09/18 06:43:00;;;;;;;0.40;0.40;;;;;;;;;;7390973;19;20417;-68
2022/09/18 06:45:27;;;;;;;0.32;0.20;;;;;;;;;;7389062;19;20006;-69
2022/09/18 06:47:53;;;;;;;0.17;0.17;;;;;;;;;;7391155;19;20569;-68
2022/09/18 06:50:20;;;;;;;0.43;0.43;;;;;;;;;;7391332;19;20006;-69
2022/09/18 06:52:46;;;;;;;0.73;0.32;;;;;;;;;;7390471;19;20028;-69
2022/09/18 06:55:12;;;;;;;0.15;0.15;;;;;;;;;;7389028;19;20367;-69
2022/09/18 06:57:37;;;;;;;0.15;0.15;;;;;;;;;;7391240;19;19998;-69
2022/09/18 07:00:03;;;;;;;0.20;0.20;;;;;;;;;;7389495;19;19994;-69
2022/09/18 07:02:28;;;;;;;0.10;0.10;;;;;;;;;;7390542;19;20287;-68
2022/09/18 07:04:53;;;;;;;0.32;0.32;;;;;;;;;;7389109;19;20325;-68
2022/09/18 07:07:18;;;;;;;0.20;0.20;;;;;;;;;;7390513;19;19994;-68
2022/09/18 07:09:44;;;;;;;0.40;0.40;;;;;;;;;;7390794;19;19994;-68
2022/09/18 07:12:09;;;;;;;0.20;0.20;;;;;;;;;;7390315;19;19995;-68
2022/09/18 07:14:34;;;;;;;0.40;0.40;;;;;;;;;;7387378;19;19995;-69
2022/09/18 07:17:00;;;;;;;0.40;0.40;;;;;;;;;;7388684;19;19995;-68
2022/09/18 07:19:25;;;;;;;0.20;0.20;;;;;;;;;;7389604;19;20014;-68
2022/09/18 07:21:51;;;;;;;0.20;0.20;;;;;;;;;;7390107;19;20076;-69
2022/09/18 07:24:16;;;;;;;0.10;0.10;;;;;;;;;;7389995;19;19995;-68
2022/09/18 07:26:42;;;;;;;0.20;0.20;;;;;;;;;;7390260;19;20401;-68
2022/09/18 07:29:07;;;;;;;1.48;0.43;;;;;;;;;;7390050;19;20002;-68
2022/09/18 07:31:34;;;;;;;0.63;0.63;;;;;;;;;;7387670;19;20007;-69
2022/09/18 07:34:00;;;;;;;0.32;0.32;;;;;;;;;;7388848;19;20009;-68
2022/09/18 07:36:26;;;;;;;0.30;0.30;;;;;;;;;;7393598;19;19990;-68
2022/09/18 07:38:51;;;;;;;2.40;0.65;;;;;;;;;;7389092;19;20495;-68
2022/09/18 07:41:18;;;;;;;0.93;0.73;;;;;;;;;;7392292;19;20387;-67
2022/09/18 07:43:43;;;;;;;1.60;0.63;;;;;;;;;;7387165;19;20006;-67
2022/09/18 07:46:09;;;;;;;0.20;0.20;;;;;;;;;;7388969;19;20805;-67
2022/09/18 07:48:34;;;;;;;1.77;0.75;;;;;;;;;;7389046;19;20415;-67
2022/09/18 07:51:00;;;;;;;0.70;0.50;;;;;;;;;;7386731;19;20011;-68
2022/09/18 07:53:26;;;;;;;0.55;0.52;;;;;;;;;;7387898;19;20005;-67
2022/09/18 07:55:52;;;;;;;0.47;0.47;;;;;;;;;;7388664;19;20384;-67
2022/09/18 07:58:17;;;;;;;0.82;0.70;;;;;;;;;;7389600;19;19995;-67
2022/09/18 08:00:43;;;;;;;2.65;1.00;;;;;;;;;;7386818;19;19998;-68
2022/09/18 08:03:11;;;;;;;3.53;0.73;;;;;;;;;;7388049;19;20046;-67
2022/09/18 08:05:38;;;;;;;0.40;0.40;;;;;;;;;;7388954;19;20329;-67
2022/09/18 08:08:05;;;;;;;0.40;0.40;;;;;;;;;;7386734;19;20388;-67
2022/09/18 08:10:31;;;;;;;3.03;1.17;;;;;;;;;;7388771;19;20024;-66
2022/09/18 08:12:56;;;;;;;10.18;4.75;;;;;;;;;;7388155;19;20428;-67
2022/09/18 08:15:22;;;;;;;2.78;0.98;;;;;;;;;;7386250;19;20002;-67
2022/09/18 08:17:47;;;;;;;1.98;0.70;;;;;;;;;;7388032;19;19995;-67
2022/09/18 08:20:13;;;;;;;1.27;0.85;;;;;;;;;;7386679;19;20019;-67
2022/09/18 08:22:39;;;;;;;0.80;0.55;;;;;;;;;;7385888;19;19999;-67
2022/09/18 08:25:05;;;;;;;1.05;0.75;;;;;;;;;;7386584;19;20002;-67
2022/09/18 08:27:30;;;;;;;0.80;0.80;;;;;;;;;;7387982;19;20398;-67
2022/09/18 08:29:57;;;;;;;0.65;0.65;;;;;;;;;;7385721;19;20417;-67
2022/09/18 08:32:22;;;;;;;0.22;0.22;;;;;;;;;;7387175;19;19994;-67
2022/09/18 08:34:47;;;;;;;0.22;0.22;;;;;;;;;;7386152;19;20030;-67
2022/09/18 08:37:13;;;;;;;0.88;0.82;;;;;;;;;;7385583;19;19999;-68
2022/09/18 08:39:38;;;;;;;2.30;0.73;;;;;;;;;;7386520;19;20003;-68
2022/09/18 08:42:13;;;;;;;2.80;0.60;;;;;;;;;;7386991;19;20002;-68
2022/09/18 08:44:43;;;;;;;1.85;0.88;;;;;;;;;;7384208;19;19994;-67
2022/09/18 08:47:25;;;;;;;1.83;1.08;;;;;;;;;;7385865;19;20019;-69
2022/09/18 08:50:00;;;;;;;4.70;2.58;;;;;;;;;;7387265;19;20006;-68
2022/09/18 08:52:32;;;;;;;1.45;0.85;;;;;;;;;;7386808;19;20011;-68
2022/09/18 08:55:04;;;;;;;1.15;1.10;;;;;;;;;;7385652;19;19999;-68
2022/09/18 08:57:44;;;;;;;0.77;0.75;;;;;;;;;;7387344;19;20468;-68
2022/09/18 09:00:21;;;;;;;0.93;0.80;;;;;;;;;;7386651;19;20285;-68
2022/09/18 09:03:13;;;;;;;0.60;0.60;;;;;;;;;;7390526;19;20098;-69
2022/09/18 09:05:45;;;;;;;0.80;0.80;;;;;;;;;;7394536;19;20005;-67
2022/09/18 09:08:31;;;;;;;0.80;0.80;;;;;;;;;;7394548;19;20003;-68
2022/09/18 09:11:35;;;;;;;0.70;0.70;;;;;;;;;;7392778;19;19999;-70
2022/09/18 09:14:14;;;;;;;2.58;1.13;;;;;;;;;;7392879;19;20009;-68
2022/09/18 09:16:47;;;;;;;4.15;1.88;;;;;;;;;;7394947;19;19998;-70
2022/09/18 09:19:32;;;;;;;0.90;0.90;;;;;;;;;;7394187;19;19998;-68
2022/09/18 09:22:15;;;;;;;0.88;0.82;;;;;;;;;;7392128;19;20001;-68
2022/09/18 09:24:47;;;;;;;1.08;0.98;;;;;;;;;;7393196;19;20019;-69
2022/09/18 09:27:36;;;;;;;0.82;0.80;;;;;;;;;;7396138;19;20005;-68
2022/09/18 09:30:13;;;;;;;0.60;0.60;;;;;;;;;;7394563;19;20382;-68
2022/09/18 09:32:46;;;;;;;1.30;0.93;;;;;;;;;;7393762;19;20294;-69
2022/09/18 09:35:36;;;;;;;0.65;0.60;;;;;;;;;;7391579;19;20002;-68
2022/09/18 09:38:37;;;;;;;5.40;1.65;;;;;;;;;;7393999;19;19998;-69
2022/09/18 09:41:10;;;;;;;;;;;;;;;;;;7392160;19;20002;-67
2022/09/18 09:44:11;;;;;;;0.80;0.80;;;;;;;;;;7392628;19;19936;-67
2022/09/18 09:47:08;;;;;;;0.63;0.60;;;;;;;;;;7391897;19;19995;-69
2022/09/18 09:49:39;;;;;;;0.93;0.75;;;;;;;;;;7396117;19;19991;-67
2022/09/18 09:52:16;;;;;;;0.90;0.80;;;;;;;;;;7392636;19;20106;-69
2022/09/18 09:54:43;;;;;;;1.00;0.90;;;;;;;;;;7391341;19;20078;-68
2022/09/18 09:57:24;;;;;;;1.38;1.00;;;;;;;;;;7392688;19;19995;-68
2022/09/18 10:00:19;;;;;;;1.45;0.98;;;;;;;;;;7391192;19;20033;-69
2022/09/18 10:03:02;;;;;;;0.60;0.60;;;;;;;;;;7393154;19;20338;-68
2022/09/18 10:06:02;;;;;;;1.17;0.88;;;;;;;;;;7392623;19;20469;-68
2022/09/18 10:08:41;;;;;;;1.23;0.57;;;;;;;;;;7392501;19;20015;-67
2022/09/18 10:11:10;;;;;;;2.50;1.08;;;;;;;;;;7392114;19;19995;-67
2022/09/18 10:14:01;;;;;;;2.35;1.42;;;;;;;;;;7389983;19;20394;-68
2022/09/18 10:16:33;;;;;;;3.85;1.02;;;;;;;;;;7392998;19;20023;-68
2022/09/18 10:18:59;;;;;;;0.88;0.70;;;;;;;;;;7391825;19;20486;-68
2022/09/18 10:21:27;;;;;;;2.78;0.82;;;;;;;;;;7390562;19;20001;-68
2022/09/18 10:24:04;;;;;;;2.60;0.57;;;;;;;;;;7391251;19;19998;-68
2022/09/18 10:26:52;;;;;;;1.45;0.73;;;;;;;;;;7390063;19;20009;-68
2022/09/18 10:29:17;;;;;;;1.45;0.88;;;;;;;;;;7392328;19;20080;-68
2022/09/18 10:32:11;;;;;;;0.40;0.40;;;;;;;;;;7391109;19;20402;-68
2022/09/18 10:34:48;;;;;;;0.88;0.68;;;;;;;;;;7389502;19;20019;-68
2022/09/18 10:37:26;;;;;;;2.00;0.50;;;;;;;;;;7392190;19;20475;-68
2022/09/18 10:39:56;;;;;;;1.05;1.00;;;;;;;;;;7390009;19;20050;-68
2022/09/18 10:42:24;;;;;;;0.43;0.43;;;;;;;;;;7391011;19;20435;-69
2022/09/18 10:44:56;;;;;;;0.40;0.40;;;;;;;;;;7390700;19;19998;-68
2022/09/18 10:47:26;;;;;;;2.35;0.60;;;;;;;;;;7389323;19;20492;-67
2022/09/18 10:50:05;;;;;;;0.50;0.50;;;;;;;;;;7389411;19;20471;-67
2022/09/18 10:52:34;;;;;;;0.40;0.40;;;;;;;;;;7390539;19;19999;-68
2022/09/18 10:55:08;;;;;;;0.98;0.90;;;;;;;;;;7389310;19;20480;-68
2022/09/18 10:57:35;;;;;;;0.70;0.70;;;;;;;;;;7391344;19;20006;-68
2022/09/18 11:00:23;;;;;;;0.70;0.70;;;;;;;;;;7389433;19;20027;-68
2022/09/18 11:03:14;;;;;;;0.60;0.60;;;;;;;;;;7390134;19;19990;-68
2022/09/18 11:05:49;;;;;;;3.20;2.05;;;;;;;;;;7390966;19;20007;-68
2022/09/18 11:08:22;;;;;;;0.85;0.70;;;;;;;;;;7390815;19;19999;-69
2022/09/18 11:10:52;;;;;;;2.13;1.38;;;;;;;;;;7390509;19;20564;-68
2022/09/18 11:13:24;;;;;;;1.98;0.70;;;;;;;;;;7388022;19;20001;-68
2022/09/18 11:15:58;;;;;;;1.40;0.60;;;;;;;;;;7390875;19;19999;-68
2022/09/18 11:18:25;;;;;;;0.88;0.88;;;;;;;;;;7389017;19;20382;-68
2022/09/18 11:20:51;;;;;;;6.55;0.52;;;;;;;;;;7388588;19;20002;-68
2022/09/18 11:23:34;;;;;;;0.93;0.75;;;;;;;;;;7389317;19;20002;-68
2022/09/18 11:26:19;;;;;;;0.70;0.70;;;;;;;;;;7386326;19;20032;-68
2022/09/18 11:29:15;;;;;;;2.60;1.13;;;;;;;;;;7390463;19;20001;-68
2022/09/18 11:31:45;;;;;;;1.10;1.00;;;;;;;;;;7390096;19;20577;-68
2022/09/18 11:34:34;;;;;;;0.60;0.60;;;;;;;;;;7394143;19;20350;-68
2022/09/18 11:37:10;;;;;;;0.77;0.70;;;;;;;;;;7390368;19;20090;-68
2022/09/18 11:39:39;;;;;;;0.50;0.50;;;;;;;;;;7388834;19;19994;-67
2022/09/18 11:42:22;;;;;;;2.67;0.88;;;;;;;;;;7389490;19;20452;-68
2022/09/18 11:44:48;;;;;;;1.65;0.85;;;;;;;;;;7388667;19;20009;-68
2022/09/18 11:47:44;;;;;;;0.93;0.82;;;;;;;;;;7389471;19;20480;-68
2022/09/18 11:50:23;;;;;;;2.05;0.80;;;;;;;;;;7388806;19;19994;-67
2022/09/18 11:52:49;;;;;;;1.25;1.02;;;;;;;;;;7388703;19;20102;-67
2022/09/18 11:55:26;;;;;;;0.77;0.77;;;;;;;;;;7390296;19;19998;-69
2022/09/18 11:57:57;;;;;;;0.73;0.70;;;;;;;;;;7392069;19;20228;-67
2022/09/18 12:00:25;;;;;;;;;;;;;;;;;;7388888;19;20002;-67
2022/09/18 12:03:14;;;;;;;2.20;0.60;;;;;;;;;;7388332;19;19946;-68
2022/09/18 12:05:51;;;;;;;1.10;0.77;;;;;;;;;;7388787;19;20102;-68
2022/09/18 12:08:53;;;;;;;1.38;0.75;;;;;;;;;;7387038;19;20025;-68
2022/09/18 12:11:31;;;;;;;2.60;1.30;;;;;;;;;;7387889;19;20546;-67
2022/09/18 12:14:22;;;;;;;0.63;0.63;;;;;;;;;;7387721;19;20005;-67
2022/09/18 12:16:58;;;;;;;0.97;0.80;;;;;;;;;;7388390;19;20074;-67
2022/09/18 12:19:42;;;;;;;0.82;0.63;;;;;;;;;;7388192;19;19995;-68
2022/09/18 12:22:22;;;;;;;3.70;0.80;;;;;;;;;;7387227;19;20024;-67
2022/09/18 12:24:49;;;;;;;0.77;0.73;;;;;;;;;;7386854;19;20002;-68
2022/09/18 12:27:40;;;;;;;0.60;0.60;;;;;;;;;;7388065;19;20011;-67
2022/09/18 12:30:17;;;;;;;1.77;0.63;;;;;;;;;;7387772;19;20012;-67
2022/09/18 12:32:56;;;;;;;0.60;0.60;;;;;;;;;;7387008;19;20067;-67
2022/09/18 12:35:37;;;;;;;0.75;0.75;;;;;;;;;;7386708;19;20032;-67
2022/09/18 12:38:18;;;;;;;0.50;0.50;;;;;;;;;;7386849;19;20062;-69
2022/09/18 12:41:05;;;;;;;0.70;0.52;;;;;;;;;;7384440;19;20018;-68
2022/09/18 12:43:55;;;;;;;3.97;0.88;;;;;;;;;;7387348;19;20015;-68
2022/09/18 12:46:46;;;;;;;1.00;0.73;;;;;;;;;;7387635;19;20006;-68
2022/09/18 12:49:11;;;;;;;0.57;0.57;;;;;;;;;;7387989;19;19999;-68
2022/09/18 12:51:44;;;;;;;1.17;0.80;;;;;;;;;;7386953;19;20441;-68
2022/09/18 12:54:46;;;;;;;1.10;0.50;;;;;;;;;;7386416;19;20032;-68
2022/09/18 12:57:53;;;;;;;0.47;0.47;;;;;;;;;;7387041;19;20502;-68
2022/09/18 13:00:18;;;;;;;0.75;0.55;;;;;;;;;;7384025;19;19999;-68
2022/09/18 13:03:02;;;;;;;0.28;0.28;;;;;;;;;;7386825;19;20005;-67
2022/09/18 13:05:41;;;;;;;1.35;0.88;;;;;;;;;;7386971;19;20481;-67
2022/09/18 13:08:10;;;;;;;0.55;0.55;;;;;;;;;;7387229;19;20002;-68
2022/09/18 13:10:44;;;;;;;0.63;0.60;;;;;;;;;;7386929;19;20015;-69
2022/09/18 13:13:19;;;;;;;1.52;0.80;;;;;;;;;;7386363;19;20408;-68
2022/09/18 13:15:51;;;;;;;0.60;0.60;;;;;;;;;;7385473;19;20070;-68
2022/09/18 13:18:39;;;;;;;0.68;0.68;;;;;;;;;;7387589;19;20287;-69
2022/09/18 13:21:16;;;;;;;1.02;0.90;;;;;;;;;;7386616;19;20418;-68
2022/09/18 13:23:42;;;;;;;0.70;0.60;;;;;;;;;;7384130;19;20503;-68
2022/09/18 13:26:11;;;;;;;0.60;0.60;;;;;;;;;;7387642;19;20484;-68
2022/09/18 13:28:40;;;;;;;1.30;0.80;;;;;;;;;;7386693;19;20003;-67
2022/09/18 13:31:13;;;;;;;0.70;0.70;;;;;;;;;;7387567;19;20405;-68
2022/09/18 13:33:59;;;;;;;1.42;1.05;;;;;;;;;;7386472;19;19998;-68
2022/09/18 13:36:44;;;;;;;8.75;4.78;;;;;;;;;;7387072;19;20014;-68
2022/09/18 13:39:27;;;;;;;2.15;1.15;;;;;;;;;;7386222;19;20356;-69
2022/09/18 13:41:58;;;;;;;0.82;0.68;;;;;;;;;;7387240;19;20058;-67
2022/09/18 13:44:27;;;;;;;;;;;;;;;;;;7386155;19;20007;-67
2022/09/18 13:46:56;;;;;;;1.27;0.70;;;;;;;;;;7387568;19;19935;-68
2022/09/18 13:49:32;;;;;;;0.65;0.65;;;;;;;;;;7389178;19;19998;-67
2022/09/18 13:52:40;;;;;;;3.80;1.02;;;;;;;;;;7393312;19;20007;-69
2022/09/18 13:55:11;;;;;;;1.25;1.15;;;;;;;;;;7391170;19;20042;-67
2022/09/18 13:57:37;;;;;;;0.85;0.50;;;;;;;;;;7387062;19;20007;-69
2022/09/18 14:00:18;;;;;;;0.85;0.82;;;;;;;;;;7396229;19;20337;-69
2022/09/18 14:02:44;;;;;;;0.55;0.55;;;;;;;;;;7392862;19;20010;-69
2022/09/18 14:05:43;;;;;;;1.95;1.48;;;;;;;;;;7391483;19;20062;-69
2022/09/18 14:08:17;;;;;;;0.75;0.63;;;;;;;;;;7392872;19;20111;-69
2022/09/18 14:11:09;;;;;;;1.13;0.88;;;;;;;;;;7392767;19;20010;-69
2022/09/18 14:13:56;;;;;;;3.20;1.33;;;;;;;;;;7392113;19;20432;-68
2022/09/18 14:16:23;;;;;;;1.33;1.00;;;;;;;;;;7392395;19;20002;-68
2022/09/18 14:18:55;;;;;;;0.70;0.70;;;;;;;;;;7392081;19;20006;-68
2022/09/18 14:21:30;;;;;;;4.22;1.80;;;;;;;;;;7391616;19;20024;-68
2022/09/18 14:24:16;;;;;;;3.30;1.80;;;;;;;;;;7391696;19;20003;-68
2022/09/18 14:26:42;;;;;;;1.38;0.80;;;;;;;;;;7392103;19;20480;-69
2022/09/18 14:29:07;;;;;;;8.97;1.03;;;;;;;;;;7391957;19;20020;-68
2022/09/18 14:31:36;;;;;;;0.75;0.75;;;;;;;;;;7391646;19;20772;-68
2022/09/18 14:34:26;;;;;;;0.60;0.60;;;;;;;;;;7389524;19;20468;-67
2022/09/18 14:36:56;;;;;;;0.80;0.70;;;;;;;;;;7391533;19;20074;-68
2022/09/18 14:39:27;;;;;;;0.93;0.57;;;;;;;;;;7390711;19;19999;-67
2022/09/18 14:41:58;;;;;;;0.93;0.93;;;;;;;;;;7391027;19;20008;-67
2022/09/18 14:44:26;;;;;;;1.70;0.93;;;;;;;;;;7392100;19;20208;-67
2022/09/18 14:46:56;;;;;;;0.82;0.80;;;;;;;;;;7394351;19;20394;-67
2022/09/18 14:49:42;;;;;;;1.27;0.90;;;;;;;;;;7391377;19;20013;-68
2022/09/18 14:52:22;;;;;;;0.98;0.93;;;;;;;;;;7391153;19;20007;-68
2022/09/18 14:54:50;;;;;;;0.63;0.63;;;;;;;;;;7389850;19;20002;-69
2022/09/18 14:57:19;;;;;;;1.38;0.77;;;;;;;;;;7391039;19;19998;-66
2022/09/18 14:59:50;;;;;;;0.88;0.60;;;;;;;;;;7389118;19;20037;-69
2022/09/18 15:02:26;;;;;;;2.30;0.95;;;;;;;;;;7390010;19;20010;-68
2022/09/18 15:04:52;;;;;;;0.68;0.68;;;;;;;;;;7388488;19;19999;-69
2022/09/18 15:07:19;;;;;;;0.77;0.70;;;;;;;;;;7392114;19;20013;-68
2022/09/18 15:09:48;;;;;;;0.50;0.50;;;;;;;;;;7393785;19;19994;-67
2022/09/18 15:12:16;;;;;;;4.25;2.25;;;;;;;;;;7390123;19;20007;-70
2022/09/18 15:14:42;;;;;;;0.68;0.68;;;;;;;;;;7382967;19;20475;-71